createdAt,value
2018-06-10T00:01:45.575Z,18.60
2018-06-10T00:04:14.367Z,18.60
2018-06-10T00:06:43.100Z,18.50
2018-06-10T00:09:11.720Z,18.50
2018-06-10T00:11:40.037Z,18.40
2018-06-10T00:14:08.568Z,18.40
2018-06-10T00:16:36.869Z,18.40
2018-06-10T00:19:05.173Z,18.30
2018-06-10T00:21:34.045Z,18.30
2018-06-10T00:24:02.410Z,18.30
2018-06-10T00:26:30.874Z,18.30
2018-06-10T00:29:33.807Z,18.20
2018-06-10T00:32:02.116Z,18.30
2018-06-10T00:34:30.413Z,18.30
2018-06-10T00:36:58.848Z,18.30
2018-06-10T00:39:27.408Z,18.40
2018-06-10T00:41:56.024Z,18.30
2018-06-10T00:44:24.311Z,18.30
2018-06-10T00:46:52.892Z,18.20
2018-06-10T00:49:21.461Z,18.20
2018-06-10T00:51:50.086Z,18.20
2018-06-10T00:54:18.404Z,18.10
2018-06-10T00:56:51.618Z,18.10
2018-06-10T00:59:19.940Z,18.00
2018-06-10T01:01:48.412Z,17.90
2018-06-10T01:04:16.704Z,17.90
2018-06-10T01:06:45.014Z,17.80
2018-06-10T01:09:13.300Z,17.90
2018-06-10T01:11:41.922Z,17.80
2018-06-10T01:14:10.331Z,17.90
2018-06-10T01:16:38.623Z,17.90
2018-06-10T01:19:06.919Z,17.80
2018-06-10T01:24:03.729Z,17.70
2018-06-10T01:26:37.488Z,17.70
2018-06-10T01:29:05.793Z,17.70
2018-06-10T01:31:34.096Z,17.70
2018-06-10T01:34:02.633Z,17.70
2018-06-10T01:36:31.225Z,17.70
2018-06-10T01:38:59.517Z,17.60
2018-06-10T01:41:28.091Z,17.60
2018-06-10T01:43:56.393Z,17.50
2018-06-10T01:46:24.687Z,17.50
2018-06-10T01:48:52.991Z,17.50
2018-06-10T01:51:21.561Z,17.50
2018-06-10T01:53:49.903Z,17.50
2018-06-10T01:56:19.021Z,17.50
2018-06-10T01:58:47.317Z,17.50
2018-06-10T02:01:15.603Z,17.50
2018-06-10T02:03:44.209Z,17.40
2018-06-10T02:06:12.508Z,17.40
2018-06-10T02:08:40.808Z,17.30
2018-06-10T02:11:09.104Z,17.30
2018-06-10T02:13:37.689Z,17.30
2018-06-10T02:16:06.234Z,17.40
2018-06-10T02:18:34.800Z,17.40
2018-06-10T02:21:03.204Z,17.30
2018-06-10T02:23:31.502Z,17.30
2018-06-10T02:25:59.796Z,17.30
2018-06-10T02:28:28.425Z,17.20
2018-06-10T02:30:57.126Z,17.20
2018-06-10T02:33:25.736Z,17.20
2018-06-10T02:35:54.447Z,17.20
2018-06-10T02:38:22.805Z,17.20
2018-06-10T02:40:51.160Z,17.20
2018-06-10T02:43:19.520Z,17.10
2018-06-10T02:45:47.909Z,17.10
2018-06-10T02:48:16.240Z,17.10
2018-06-10T02:50:44.595Z,17.10
2018-06-10T02:53:13.142Z,17.10
2018-06-10T02:55:41.491Z,17.10
2018-06-10T02:58:10.124Z,17.10
2018-06-10T03:00:39.165Z,17.00
2018-06-10T03:03:08.107Z,17.00
2018-06-10T03:05:36.835Z,17.00
2018-06-10T03:08:05.572Z,17.00
2018-06-10T03:10:34.069Z,17.00
2018-06-10T03:13:02.720Z,17.00
2018-06-10T03:15:31.211Z,16.90
2018-06-10T03:17:59.819Z,16.90
2018-06-10T03:20:28.427Z,16.90
2018-06-10T03:22:57.049Z,16.90
2018-06-10T03:25:25.685Z,16.90
2018-06-10T03:27:54.021Z,16.90
2018-06-10T03:30:22.633Z,16.90
2018-06-10T03:32:51.528Z,16.90
2018-06-10T03:35:19.899Z,16.90
2018-06-10T03:37:48.415Z,16.80
2018-06-10T03:40:16.974Z,16.90
2018-06-10T03:42:45.545Z,16.90
2018-06-10T03:45:13.840Z,16.90
2018-06-10T03:47:42.132Z,16.80
2018-06-10T03:50:10.764Z,16.80
2018-06-10T03:52:39.330Z,16.80
2018-06-10T03:55:07.936Z,16.80
2018-06-10T03:57:36.451Z,16.90
2018-06-10T04:00:04.844Z,16.90
2018-06-10T04:02:33.422Z,16.90
2018-06-10T04:05:01.996Z,16.90
2018-06-10T04:07:30.283Z,16.90
2018-06-10T04:09:58.783Z,17.00
2018-06-10T04:12:27.133Z,17.00
2018-06-10T04:14:55.708Z,17.00
2018-06-10T04:17:24.283Z,17.00
2018-06-10T04:19:52.703Z,17.00
2018-06-10T04:22:21.305Z,17.10
2018-06-10T04:24:49.605Z,17.10
2018-06-10T04:27:17.917Z,17.10
2018-06-10T04:29:46.890Z,17.10
2018-06-10T04:32:15.221Z,17.20
2018-06-10T04:34:43.515Z,17.20
2018-06-10T04:37:11.881Z,17.30
2018-06-10T04:39:40.172Z,17.30
2018-06-10T04:42:08.795Z,17.40
2018-06-10T04:44:37.080Z,17.50
2018-06-10T04:47:05.389Z,17.50
2018-06-10T04:49:34.045Z,17.60
2018-06-10T04:52:02.637Z,17.60
2018-06-10T04:54:30.936Z,17.70
2018-06-10T04:56:59.556Z,17.80
2018-06-10T04:59:27.984Z,17.80
2018-06-10T05:01:56.380Z,18.00
2018-06-10T05:04:24.719Z,18.00
2018-06-10T05:06:53.699Z,18.00
2018-06-10T05:09:22.051Z,18.10
2018-06-10T05:11:50.761Z,18.20
2018-06-10T05:14:19.399Z,18.30
2018-06-10T05:16:47.979Z,18.40
2018-06-10T05:19:16.615Z,18.40
2018-06-10T05:21:45.317Z,18.40
2018-06-10T05:24:13.671Z,18.50
2018-06-10T05:26:42.141Z,18.60
2018-06-10T05:29:10.828Z,18.60
2018-06-10T05:31:39.191Z,18.60
2018-06-10T05:34:07.504Z,18.70
2018-06-10T05:36:35.797Z,18.80
2018-06-10T05:39:07.597Z,18.90
2018-06-10T05:41:36.317Z,18.90
2018-06-10T05:44:04.720Z,19.10
2018-06-10T05:46:33.325Z,19.10
2018-06-10T05:49:01.954Z,19.10
2018-06-10T05:51:30.329Z,19.20
2018-06-10T05:53:58.638Z,19.20
2018-06-10T05:56:27.242Z,19.30
2018-06-10T05:58:55.677Z,19.40
2018-06-10T06:01:24.257Z,19.40
2018-06-10T06:03:52.545Z,19.40
2018-06-10T06:06:21.102Z,19.50
2018-06-10T06:08:50.683Z,19.60
2018-06-10T06:11:19.231Z,19.70
2018-06-10T06:13:47.788Z,19.80
2018-06-10T06:16:16.364Z,19.90
2018-06-10T06:18:44.665Z,19.90
2018-06-10T06:21:13.248Z,20.00
2018-06-10T06:23:41.558Z,20.00
2018-06-10T06:26:09.840Z,20.10
2018-06-10T06:28:38.328Z,20.10
2018-06-10T06:31:06.665Z,20.20
2018-06-10T06:33:35.315Z,20.30
2018-06-10T06:36:03.688Z,20.50
2018-06-10T06:38:32.219Z,20.70
2018-06-10T06:41:00.560Z,20.80
2018-06-10T06:43:28.913Z,20.80
2018-06-10T06:45:57.267Z,21.00
2018-06-10T06:48:25.901Z,21.20
2018-06-10T06:50:54.529Z,21.20
2018-06-10T06:53:23.171Z,21.30
2018-06-10T06:55:55.657Z,21.50
2018-06-10T06:58:24.569Z,21.60
2018-06-10T07:00:53.383Z,21.80
2018-06-10T07:03:21.823Z,21.90
2018-06-10T07:05:50.439Z,21.90
2018-06-10T07:08:19.213Z,22.10
2018-06-10T07:13:15.777Z,22.40
2018-06-10T07:15:44.753Z,22.60
2018-06-10T07:18:13.262Z,22.70
2018-06-10T07:20:41.625Z,23.00
2018-06-10T07:23:10.337Z,23.20
2018-06-10T07:25:38.805Z,23.50
2018-06-10T07:28:07.153Z,23.80
2018-06-10T07:30:35.689Z,23.80
2018-06-10T07:33:04.685Z,23.40
2018-06-10T07:35:33.172Z,23.30
2018-06-10T07:38:01.669Z,23.50
2018-06-10T07:40:30.365Z,23.50
2018-06-10T07:42:59.101Z,23.40
2018-06-10T07:45:27.464Z,23.50
2018-06-10T07:47:55.818Z,23.70
2018-06-10T07:50:24.306Z,23.90
2018-06-10T07:52:52.652Z,24.10
2018-06-10T07:55:21.059Z,24.30
2018-06-10T07:57:49.843Z,24.50
2018-06-10T08:00:18.468Z,24.40
2018-06-10T08:02:47.080Z,24.20
2018-06-10T08:05:15.683Z,24.10
2018-06-10T08:07:44.072Z,24.40
2018-06-10T08:10:12.712Z,24.70
2018-06-10T08:12:41.055Z,24.70
2018-06-10T08:15:09.897Z,24.80
2018-06-10T08:17:38.629Z,24.70
2018-06-10T08:20:07.345Z,25.00
2018-06-10T08:22:35.748Z,25.30
2018-06-10T08:25:04.239Z,25.30
2018-06-10T08:27:32.917Z,25.50
2018-06-10T08:30:01.763Z,25.40
2018-06-10T08:32:30.395Z,25.60
2018-06-10T08:34:58.777Z,25.80
2018-06-10T08:39:55.640Z,25.50
2018-06-10T08:42:23.953Z,25.30
2018-06-10T08:44:52.268Z,25.00
2018-06-10T08:47:20.696Z,25.30
2018-06-10T08:49:49.030Z,25.20
2018-06-10T08:52:17.636Z,25.10
2018-06-10T08:54:45.967Z,25.40
2018-06-10T08:57:14.400Z,25.90
2018-06-10T08:59:42.752Z,26.10
2018-06-10T09:02:11.064Z,26.00
2018-06-10T09:07:07.644Z,26.10
2018-06-10T09:09:36.072Z,26.30
2018-06-10T09:12:04.372Z,26.70
2018-06-10T09:14:32.976Z,27.20
2018-06-10T09:17:01.504Z,28.10
2018-06-10T09:19:30.055Z,28.40
2018-06-10T09:21:58.375Z,27.90
2018-06-10T09:24:26.945Z,26.90
2018-06-10T09:26:55.593Z,27.10
2018-06-10T09:29:23.909Z,28.00
2018-06-10T09:31:52.204Z,28.80
2018-06-10T09:34:20.567Z,28.10
2018-06-10T09:36:48.925Z,27.50
2018-06-10T09:39:17.667Z,26.50
2018-06-10T09:41:46.021Z,26.80
2018-06-10T09:44:14.777Z,28.10
2018-06-10T09:46:43.123Z,28.90
2018-06-10T09:49:12.070Z,29.30
2018-06-10T09:51:40.473Z,28.50
2018-06-10T09:54:09.145Z,28.00
2018-06-10T09:56:37.892Z,28.50
2018-06-10T09:59:06.488Z,28.80
2018-06-10T10:01:35.252Z,29.50
2018-06-10T10:04:04.535Z,30.60
2018-06-10T10:06:33.958Z,31.30
2018-06-10T10:09:03.373Z,31.30
2018-06-10T10:11:32.021Z,31.10
2018-06-10T10:14:00.712Z,31.60
2018-06-10T10:16:29.098Z,32.20
2018-06-10T10:18:57.460Z,32.50
2018-06-10T10:21:26.100Z,32.80
2018-06-10T10:23:54.468Z,32.80
2018-06-10T10:26:22.820Z,32.10
2018-06-10T10:28:51.832Z,31.40
2018-06-10T10:31:21.247Z,31.40
2018-06-10T10:33:49.958Z,31.10
2018-06-10T10:36:19.711Z,30.60
2018-06-10T10:38:48.756Z,31.10
2018-06-10T10:41:17.442Z,31.00
2018-06-10T10:43:46.120Z,30.90
2018-06-10T10:46:14.504Z,31.70
2018-06-10T10:48:42.908Z,31.70
2018-06-10T10:51:11.437Z,30.90
2018-06-10T10:53:40.076Z,31.20
2018-06-10T10:56:08.554Z,32.30
2018-06-10T10:58:37.063Z,32.30
2018-06-10T11:01:06.202Z,31.40
2018-06-10T11:03:34.748Z,30.80
2018-06-10T11:06:03.161Z,31.50
2018-06-10T11:08:32.418Z,32.30
2018-06-10T11:11:01.809Z,32.70
2018-06-10T11:13:30.238Z,33.40
2018-06-10T11:15:58.741Z,32.40
2018-06-10T11:18:27.576Z,32.00
2018-06-10T11:20:56.215Z,32.50
2018-06-10T11:23:24.849Z,33.30
2018-06-10T11:25:53.265Z,32.70
2018-06-10T11:28:21.658Z,32.60
2018-06-10T11:30:50.360Z,33.40
2018-06-10T11:33:19.190Z,32.90
2018-06-10T11:35:47.972Z,32.70
2018-06-10T11:38:16.868Z,34.10
2018-06-10T11:40:45.236Z,34.50
2018-06-10T11:43:13.858Z,35.80
2018-06-10T11:45:42.214Z,36.50
2018-06-10T11:48:10.576Z,36.40
2018-06-10T11:50:39.481Z,35.10
2018-06-10T11:53:08.207Z,33.30
2018-06-10T11:55:36.866Z,31.80
2018-06-10T11:58:05.223Z,30.30
2018-06-10T12:00:33.897Z,29.60
2018-06-10T12:03:02.244Z,28.90
2018-06-10T12:05:30.605Z,28.80
2018-06-10T12:07:59.620Z,28.70
2018-06-10T12:10:28.279Z,28.60
2018-06-10T12:12:56.866Z,28.80
2018-06-10T12:15:25.256Z,30.00
2018-06-10T12:17:53.880Z,30.40
2018-06-10T12:20:22.772Z,29.80
2018-06-10T12:22:52.292Z,29.20
2018-06-10T12:25:20.832Z,28.50
2018-06-10T12:27:49.236Z,28.10
2018-06-10T12:30:19.166Z,27.80
2018-06-10T12:32:47.665Z,27.60
2018-06-10T12:35:16.278Z,27.60
2018-06-10T12:37:44.780Z,27.70
2018-06-10T12:40:13.424Z,27.50
2018-06-10T12:42:41.868Z,27.40
2018-06-10T12:45:10.552Z,27.10
2018-06-10T12:47:39.201Z,26.60
2018-06-10T12:50:07.678Z,26.20
2018-06-10T12:52:36.028Z,25.70
2018-06-10T12:55:05.008Z,25.30
2018-06-10T12:57:33.653Z,25.10
2018-06-10T13:00:02.085Z,24.70
2018-06-10T13:02:30.665Z,24.60
2018-06-10T13:04:59.693Z,24.60
2018-06-10T13:07:32.198Z,24.40
2018-06-10T13:10:01.090Z,24.40
2018-06-10T13:12:29.571Z,24.30
2018-06-10T13:14:58.001Z,24.10
2018-06-10T13:17:26.379Z,24.00
2018-06-10T13:19:55.041Z,23.80
2018-06-10T13:22:23.451Z,23.80
2018-06-10T13:24:52.083Z,23.70
2018-06-10T13:27:20.674Z,23.60
2018-06-10T13:29:49.053Z,23.60
2018-06-10T13:32:17.414Z,23.70
2018-06-10T13:34:46.101Z,24.00
2018-06-10T13:37:14.729Z,24.50
2018-06-10T13:39:43.132Z,25.00
2018-06-10T13:42:11.884Z,25.90
2018-06-10T13:44:40.501Z,26.90
2018-06-10T13:47:09.032Z,28.00
2018-06-10T13:49:37.418Z,28.10
2018-06-10T13:52:05.826Z,28.80
2018-06-10T13:54:34.467Z,30.10
2018-06-10T13:57:03.432Z,31.60
2018-06-10T13:59:32.133Z,32.50
2018-06-10T14:02:00.827Z,33.20
2018-06-10T14:04:29.582Z,33.30
2018-06-10T14:06:57.940Z,33.10
2018-06-10T14:09:26.536Z,33.40
2018-06-10T14:11:55.012Z,33.50
2018-06-10T14:14:23.912Z,32.90
2018-06-10T14:16:52.261Z,32.90
2018-06-10T14:19:20.756Z,33.40
2018-06-10T14:21:49.400Z,33.90
2018-06-10T14:24:17.771Z,34.20
2018-06-10T14:26:46.384Z,34.50
2018-06-10T14:29:15.084Z,34.30
2018-06-10T14:31:43.539Z,34.20
2018-06-10T14:34:11.903Z,34.50
2018-06-10T14:36:40.747Z,34.10
2018-06-10T14:39:10.049Z,34.40
2018-06-10T14:41:38.406Z,34.60
2018-06-10T14:44:06.710Z,34.60
2018-06-10T14:46:35.341Z,33.70
2018-06-10T14:49:03.649Z,33.20
2018-06-10T14:51:32.204Z,33.30
2018-06-10T14:54:00.528Z,33.10
2018-06-10T14:56:29.177Z,33.50
2018-06-10T14:58:57.748Z,33.70
2018-06-10T15:01:26.316Z,33.40
2018-06-10T15:03:54.614Z,33.60
2018-06-10T15:06:22.926Z,33.60
2018-06-10T15:08:51.236Z,33.60
2018-06-10T15:11:19.608Z,33.30
2018-06-10T15:13:48.174Z,32.80
2018-06-10T15:16:17.764Z,32.80
2018-06-10T15:18:46.620Z,33.00
2018-06-10T15:21:15.237Z,33.10
2018-06-10T15:23:43.712Z,33.00
2018-06-10T15:28:41.788Z,31.60
2018-06-10T15:31:10.272Z,30.90
2018-06-10T15:33:38.701Z,30.30
2018-06-10T15:36:07.856Z,29.90
2018-06-10T15:38:36.418Z,29.80
2018-06-10T15:41:04.708Z,30.00
2018-06-10T15:43:33.035Z,30.10
2018-06-10T15:46:01.334Z,29.70
2018-06-10T15:48:29.619Z,29.70
2018-06-10T15:50:57.925Z,30.30
2018-06-10T15:53:26.212Z,31.10
2018-06-10T15:55:54.777Z,31.90
2018-06-10T15:58:23.093Z,32.40
2018-06-10T16:00:51.381Z,32.50
2018-06-10T16:03:20.284Z,32.90
2018-06-10T16:05:48.837Z,32.90
2018-06-10T16:08:17.144Z,33.00
2018-06-10T16:10:45.693Z,32.90
2018-06-10T16:13:14.303Z,32.70
2018-06-10T16:15:42.644Z,32.20
2018-06-10T16:18:11.208Z,31.90
2018-06-10T16:20:39.524Z,31.70
2018-06-10T16:23:08.202Z,31.00
2018-06-10T16:25:36.818Z,30.10
2018-06-10T16:28:05.120Z,29.50
2018-06-10T16:30:33.444Z,29.10
2018-06-10T16:33:02.126Z,28.50
2018-06-10T16:35:30.604Z,28.20
2018-06-10T16:37:59.053Z,27.70
2018-06-10T16:40:27.703Z,27.50
2018-06-10T16:42:56.555Z,27.40
2018-06-10T16:45:25.059Z,27.20
2018-06-10T16:47:53.625Z,27.00
2018-06-10T16:50:22.243Z,26.90
2018-06-10T16:52:50.637Z,26.90
2018-06-10T16:55:21.835Z,26.90
2018-06-10T17:01:10.741Z,26.70
2018-06-10T17:03:39.301Z,26.60
2018-06-10T17:06:07.857Z,26.50
2018-06-10T17:08:36.769Z,26.40
2018-06-10T17:11:05.896Z,26.30
2018-06-10T17:13:34.540Z,26.20
2018-06-10T17:18:31.238Z,25.70
2018-06-10T17:20:59.874Z,25.50
2018-06-10T17:23:28.652Z,25.30
2018-06-10T17:25:57.081Z,25.20
2018-06-10T17:28:25.788Z,25.00
2018-06-10T17:30:54.552Z,25.00
2018-06-10T17:33:22.931Z,24.90
2018-06-10T17:35:51.305Z,24.90
2018-06-10T17:38:19.667Z,24.90
2018-06-10T17:40:48.613Z,24.90
2018-06-10T17:43:18.270Z,24.80
2018-06-10T17:45:48.044Z,24.90
2018-06-10T17:48:16.558Z,24.90
2018-06-10T17:50:45.044Z,24.90
2018-06-10T17:53:13.814Z,24.90
2018-06-10T17:55:42.221Z,24.90
2018-06-10T17:58:11.127Z,24.90
2018-06-10T18:00:40.383Z,24.80
2018-06-10T18:03:08.943Z,24.80
2018-06-10T18:05:37.299Z,24.80
2018-06-10T18:08:05.913Z,24.70
2018-06-10T18:10:34.289Z,24.70
2018-06-10T18:13:03.235Z,24.60
2018-06-10T18:15:31.757Z,24.50
2018-06-10T18:18:00.405Z,24.40
2018-06-10T18:20:29.262Z,24.40
2018-06-10T18:22:58.107Z,24.30
2018-06-10T18:25:26.709Z,24.20
2018-06-10T18:27:55.093Z,24.20
2018-06-10T18:30:23.620Z,24.20
2018-06-10T18:32:53.344Z,24.10
2018-06-10T18:35:22.310Z,24.00
2018-06-10T18:37:51.409Z,24.00
2018-06-10T18:40:20.101Z,23.90
2018-06-10T18:42:48.960Z,23.90
2018-06-10T18:45:17.400Z,23.80
2018-06-10T18:47:45.976Z,23.70
2018-06-10T18:50:14.810Z,23.70
2018-06-10T18:52:43.572Z,23.70
2018-06-10T18:55:12.197Z,23.60
2018-06-10T18:57:40.884Z,23.50
2018-06-10T19:00:09.835Z,23.40
2018-06-10T19:02:38.472Z,23.30
2018-06-10T19:05:06.900Z,23.30
2018-06-10T19:07:35.641Z,23.20
2018-06-10T19:10:04.614Z,23.10
2018-06-10T19:12:33.004Z,23.10
2018-06-10T19:15:01.568Z,23.00
2018-06-10T19:17:30.324Z,22.90
2018-06-10T19:19:59.204Z,22.80
2018-06-10T19:22:27.571Z,22.70
2018-06-10T19:24:56.129Z,22.60
2018-06-10T19:27:25.293Z,22.60
2018-06-10T19:29:54.488Z,22.50
2018-06-10T19:32:23.096Z,22.40
2018-06-10T19:34:51.484Z,22.40
2018-06-10T19:37:19.973Z,22.30
2018-06-10T19:39:48.544Z,22.20
2018-06-10T19:42:16.864Z,22.20
2018-06-10T19:44:45.480Z,22.20
2018-06-10T19:47:14.125Z,22.10
2018-06-10T19:49:42.679Z,22.00
2018-06-10T19:52:11.178Z,22.00
2018-06-10T19:54:39.559Z,21.90
2018-06-10T19:57:08.309Z,21.80
2018-06-10T19:59:37.616Z,21.70
2018-06-10T20:02:06.811Z,21.70
2018-06-10T20:04:35.523Z,21.60
2018-06-10T20:07:04.098Z,21.50
2018-06-10T20:09:32.673Z,21.50
2018-06-10T20:12:01.250Z,21.50
2018-06-10T20:14:29.919Z,21.40
2018-06-10T20:16:58.527Z,21.30
2018-06-10T20:19:27.141Z,21.30
2018-06-10T20:21:55.443Z,21.20
2018-06-10T20:24:23.736Z,21.20
2018-06-10T20:26:52.052Z,21.10
2018-06-10T20:29:20.352Z,21.10
2018-06-10T20:31:48.668Z,21.00
2018-06-10T20:34:17.176Z,21.00
2018-06-10T20:36:45.644Z,20.90
2018-06-10T20:39:14.363Z,20.90
2018-06-10T20:41:42.963Z,20.90
2018-06-10T20:44:11.344Z,20.80
2018-06-10T20:46:39.688Z,20.80
2018-06-10T20:49:08.353Z,20.80
2018-06-10T20:51:36.688Z,20.70
2018-06-10T20:54:05.615Z,20.70
2018-06-10T20:56:33.962Z,20.70
2018-06-10T20:59:02.621Z,20.60
2018-06-10T21:01:30.971Z,20.60
2018-06-10T21:03:59.381Z,20.60
2018-06-10T21:06:27.981Z,20.50
2018-06-10T21:08:56.335Z,20.50
2018-06-10T21:11:24.921Z,20.50
2018-06-10T21:13:53.379Z,20.40
2018-06-10T21:16:21.873Z,20.40
2018-06-10T21:18:50.229Z,20.40
2018-06-10T21:21:18.864Z,20.40
2018-06-10T21:23:47.661Z,20.50
2018-06-10T21:26:16.105Z,20.40
2018-06-10T21:28:44.640Z,20.40
2018-06-10T21:31:13.167Z,20.30
2018-06-10T21:33:41.769Z,20.30
2018-06-10T21:36:10.272Z,20.30
2018-06-10T21:38:39.173Z,20.20
2018-06-10T21:41:07.796Z,20.20
2018-06-10T21:43:37.004Z,20.10
2018-06-10T21:46:06.035Z,20.20
2018-06-10T21:48:34.496Z,20.20
2018-06-10T21:51:02.828Z,20.10
2018-06-10T21:53:31.564Z,20.10
2018-06-10T21:56:00.124Z,20.10
2018-06-10T21:58:28.688Z,20.00
2018-06-10T22:00:58.604Z,19.90
2018-06-10T22:03:27.044Z,19.80
2018-06-10T22:05:55.527Z,19.80
2018-06-10T22:08:24.148Z,19.80
2018-06-10T22:10:52.623Z,19.70
2018-06-10T22:13:20.973Z,19.70
2018-06-10T22:15:49.574Z,19.60
2018-06-10T22:20:46.007Z,19.60
2018-06-10T22:23:14.376Z,19.60
2018-06-10T22:25:43.053Z,19.50
2018-06-10T22:28:11.664Z,19.50
2018-06-10T22:30:40.347Z,19.50
2018-06-10T22:33:09.109Z,19.50
2018-06-10T22:35:37.713Z,19.40
2018-06-10T22:38:06.303Z,19.40
2018-06-10T22:40:34.577Z,19.40
2018-06-10T22:43:03.184Z,19.40
2018-06-10T22:45:31.969Z,19.40
2018-06-10T22:48:00.308Z,19.30
2018-06-10T22:50:28.626Z,19.30
2018-06-10T22:53:45.967Z,19.30
2018-06-10T22:56:14.271Z,19.30
2018-06-10T22:58:42.864Z,19.20
2018-06-10T23:01:11.764Z,19.10
2018-06-10T23:03:40.507Z,19.20
2018-06-10T23:06:08.802Z,19.10
2018-06-10T23:08:37.115Z,19.10
2018-06-10T23:11:06.037Z,19.10
2018-06-10T23:13:34.331Z,19.00
2018-06-10T23:16:02.657Z,19.00
2018-06-10T23:18:30.932Z,19.00
2018-06-10T23:20:59.229Z,19.00
2018-06-10T23:23:27.519Z,18.90
2018-06-10T23:25:55.814Z,18.90
2018-06-10T23:28:24.312Z,18.80
2018-06-10T23:30:52.600Z,18.70
2018-06-10T23:33:20.900Z,18.70
2018-06-10T23:35:49.434Z,18.60
2018-06-10T23:38:17.795Z,18.60
2018-06-10T23:40:46.436Z,18.60
2018-06-10T23:43:14.780Z,18.60
2018-06-10T23:45:43.230Z,18.60
2018-06-10T23:48:11.743Z,18.70
2018-06-10T23:50:40.359Z,18.60
2018-06-10T23:53:08.829Z,18.60
2018-06-10T23:55:37.287Z,18.60
2018-06-10T23:58:05.637Z,18.50
